createdAt,value
2017-12-10T15:04:37.647Z,85.30
2017-12-10T15:07:05.836Z,85.80
2017-12-10T15:09:33.252Z,85.80
2017-12-10T15:12:01.435Z,86.10
2017-12-10T15:14:28.861Z,86.10
2017-12-10T15:16:56.282Z,86.50
2017-12-10T15:19:23.696Z,87.00
2017-12-10T15:21:51.120Z,87.00
2017-12-10T15:24:18.540Z,87.10
2017-12-10T15:26:45.952Z,86.80
2017-12-10T15:29:14.137Z,86.70
2017-12-10T15:31:41.556Z,87.40
2017-12-10T15:34:09.768Z,86.90
2017-12-10T15:36:37.197Z,86.80
2017-12-10T15:39:04.655Z,87.00
2017-12-10T15:41:32.067Z,87.10
2017-12-10T15:43:59.484Z,87.40
2017-12-10T15:46:27.664Z,86.70
2017-12-10T15:48:55.085Z,86.60
2017-12-10T15:51:23.299Z,86.90
2017-12-10T15:53:50.711Z,86.80
2017-12-10T15:56:18.164Z,86.90
2017-12-10T15:58:45.588Z,87.10
2017-12-10T16:01:13.007Z,88.00
2017-12-10T16:03:41.219Z,88.50
2017-12-10T16:06:08.652Z,88.50
2017-12-10T16:08:36.084Z,88.40
2017-12-10T16:11:03.492Z,88.20
2017-12-10T16:13:31.693Z,88.60
2017-12-10T16:15:59.101Z,88.40
2017-12-10T16:18:26.529Z,88.60
2017-12-10T16:20:54.704Z,88.30
2017-12-10T16:23:22.120Z,88.30
2017-12-10T16:25:50.316Z,88.70
2017-12-10T16:28:17.745Z,88.70
2017-12-10T16:30:45.164Z,88.80
2017-12-10T16:33:13.348Z,89.80
2017-12-10T16:35:40.764Z,89.70
2017-12-10T16:38:08.949Z,89.50
2017-12-10T16:40:36.368Z,89.50
2017-12-10T16:43:04.588Z,89.40
2017-12-10T16:45:32.006Z,88.70
2017-12-10T16:47:59.420Z,87.90
2017-12-10T16:50:26.831Z,87.10
2017-12-10T16:52:54.260Z,86.90
2017-12-10T16:55:21.676Z,86.40
2017-12-10T16:57:49.096Z,86.20
2017-12-10T17:00:16.522Z,86.10
2017-12-10T17:02:44.709Z,86.00
2017-12-10T17:05:12.121Z,85.90
2017-12-10T17:07:40.307Z,85.60
2017-12-10T17:10:07.724Z,85.50
2017-12-10T17:12:35.928Z,87.70
2017-12-10T17:15:03.340Z,87.70
2017-12-10T17:17:30.760Z,87.70
2017-12-10T17:19:58.972Z,87.80
2017-12-10T17:22:26.401Z,87.80
2017-12-10T17:24:53.832Z,88.70
2017-12-10T17:27:21.237Z,89.80
2017-12-10T17:29:49.416Z,90.10
2017-12-10T17:32:16.839Z,90.10
2017-12-10T17:34:45.024Z,89.70
2017-12-10T17:37:12.444Z,89.70
2017-12-10T17:39:41.032Z,88.60
2017-12-10T17:42:08.452Z,88.60
2017-12-10T17:44:36.645Z,88.80
2017-12-10T17:47:04.065Z,88.80
2017-12-10T17:49:31.475Z,89.10
2017-12-10T17:51:58.923Z,88.20
2017-12-10T17:54:26.341Z,87.60
2017-12-10T17:56:53.752Z,87.30
2017-12-10T17:59:21.172Z,85.80
2017-12-10T18:01:48.587Z,85.10
2017-12-10T18:04:16.012Z,84.40
2017-12-10T18:06:43.433Z,84.20
2017-12-10T18:09:10.849Z,84.00
2017-12-10T18:11:38.270Z,84.50
2017-12-10T18:14:06.448Z,85.00
2017-12-10T18:16:33.859Z,84.80
2017-12-10T18:19:01.277Z,84.90
2017-12-10T18:21:28.687Z,84.70
2017-12-10T18:23:56.116Z,84.30
2017-12-10T18:26:23.519Z,84.70
2017-12-10T18:28:51.744Z,84.70
2017-12-10T18:31:19.166Z,84.70
2017-12-10T18:33:46.600Z,84.40
2017-12-10T18:36:14.020Z,83.80
2017-12-10T18:38:42.200Z,83.30
2017-12-10T18:41:09.624Z,83.30
2017-12-10T18:43:37.816Z,82.60
2017-12-10T18:46:05.236Z,82.40
2017-12-10T18:48:32.648Z,82.90
2017-12-10T18:51:00.857Z,83.40
2017-12-10T18:53:28.267Z,83.40
2017-12-10T18:55:55.688Z,82.80
2017-12-10T18:58:23.885Z,83.10
2017-12-10T19:00:51.296Z,83.00
2017-12-10T19:03:19.476Z,82.80
2017-12-10T19:05:46.896Z,82.60
2017-12-10T19:08:15.075Z,81.80
2017-12-10T19:10:42.520Z,81.70
2017-12-10T19:13:10.706Z,81.40
2017-12-10T19:15:38.128Z,81.40
2017-12-10T19:18:05.553Z,80.80
2017-12-10T19:20:32.980Z,80.50
2017-12-10T19:23:01.173Z,79.60
2017-12-10T19:25:28.596Z,79.60
2017-12-10T19:27:56.016Z,79.30
2017-12-10T19:30:24.211Z,79.60
2017-12-10T19:32:51.631Z,79.50
2017-12-10T19:35:19.043Z,79.20
2017-12-10T19:37:46.465Z,79.60
2017-12-10T19:40:13.880Z,79.90
2017-12-10T19:42:41.291Z,78.60
2017-12-10T19:45:08.754Z,78.00
2017-12-10T19:47:36.172Z,77.80
2017-12-10T19:50:04.356Z,77.90
2017-12-10T19:52:31.800Z,77.80
2017-12-10T19:54:59.230Z,77.50
2017-12-10T19:57:26.682Z,77.50
2017-12-10T19:59:54.094Z,76.80
2017-12-10T20:02:22.273Z,76.20
2017-12-10T20:04:49.695Z,76.10
2017-12-10T20:07:17.882Z,75.60
2017-12-10T20:09:45.344Z,75.40
2017-12-10T20:12:12.765Z,75.30
2017-12-10T20:14:40.181Z,75.20
2017-12-10T20:17:08.389Z,74.40
2017-12-10T20:19:35.808Z,74.30
2017-12-10T20:22:03.228Z,76.00
2017-12-10T20:24:30.640Z,74.70
2017-12-10T20:26:58.059Z,74.50
2017-12-10T20:29:25.534Z,75.60
2017-12-10T20:31:53.703Z,74.00
2017-12-10T20:34:21.902Z,73.80
2017-12-10T20:36:49.309Z,73.80
2017-12-10T20:39:17.498Z,73.90
2017-12-10T20:41:44.945Z,73.90
2017-12-10T20:44:12.360Z,73.80
2017-12-10T20:46:39.821Z,73.50
2017-12-10T20:49:07.255Z,73.30
2017-12-10T20:51:34.680Z,73.10
2017-12-10T20:54:02.104Z,72.50
2017-12-10T20:56:30.300Z,71.90
2017-12-10T20:58:57.711Z,71.90
2017-12-10T21:01:25.892Z,72.10
2017-12-10T21:03:53.308Z,72.10
2017-12-10T21:06:21.483Z,72.70
2017-12-10T21:08:48.904Z,72.60
2017-12-10T21:11:17.084Z,72.50
2017-12-10T21:13:44.514Z,72.40
2017-12-10T21:16:12.700Z,72.10
2017-12-10T21:18:40.116Z,72.00
2017-12-10T21:21:07.546Z,71.50
2017-12-10T21:23:35.732Z,72.10
2017-12-10T21:26:03.305Z,72.10
2017-12-10T21:28:30.715Z,72.00
2017-12-10T21:30:58.145Z,72.10
2017-12-10T21:33:26.324Z,72.10
2017-12-10T21:35:53.739Z,72.00
2017-12-10T21:38:21.919Z,72.20
2017-12-10T21:40:49.332Z,72.10
2017-12-10T21:43:17.516Z,71.90
2017-12-10T21:45:44.988Z,71.70
2017-12-10T21:48:12.402Z,73.10
2017-12-10T21:50:39.820Z,71.50
2017-12-10T21:53:08.013Z,72.10
2017-12-10T21:55:35.437Z,72.00
2017-12-10T21:58:02.852Z,71.30
2017-12-10T22:00:31.040Z,72.00
2017-12-10T22:02:58.452Z,71.90
2017-12-10T22:05:26.640Z,72.20
2017-12-10T22:07:54.071Z,72.20
2017-12-10T22:10:21.494Z,72.70
2017-12-10T22:12:48.916Z,72.90
2017-12-10T22:15:16.337Z,73.60
2017-12-10T22:17:43.756Z,72.80
2017-12-10T22:20:11.180Z,72.20
2017-12-10T22:22:38.592Z,71.60
2017-12-10T22:25:06.028Z,71.50
2017-12-10T22:27:33.455Z,71.20
2017-12-10T22:30:00.856Z,71.80
2017-12-10T22:32:28.272Z,71.70
2017-12-10T22:34:56.452Z,72.30
2017-12-10T22:37:23.868Z,72.20
2017-12-10T22:39:52.056Z,71.90
2017-12-10T22:42:19.475Z,71.80
2017-12-10T22:44:47.655Z,72.30
2017-12-10T22:47:15.084Z,72.30
2017-12-10T22:49:43.256Z,72.90
2017-12-10T22:52:10.686Z,72.90
2017-12-10T22:54:38.096Z,73.40
2017-12-10T22:57:05.523Z,73.30
2017-12-10T22:59:32.968Z,73.90
2017-12-10T23:02:00.426Z,73.30
2017-12-10T23:04:27.796Z,73.50
2017-12-10T23:06:55.220Z,73.50
2017-12-10T23:09:23.426Z,74.80
2017-12-10T23:11:50.848Z,74.00
2017-12-10T23:14:18.383Z,74.30
2017-12-10T23:16:45.796Z,74.90
2017-12-10T23:19:13.987Z,75.50
2017-12-10T23:21:41.404Z,75.30
2017-12-10T23:24:09.580Z,76.00
2017-12-10T23:26:37.002Z,75.90
2017-12-10T23:29:05.180Z,76.80
2017-12-10T23:31:32.591Z,76.80
2017-12-10T23:34:00.801Z,77.30
2017-12-10T23:36:28.208Z,77.20
2017-12-10T23:38:56.392Z,78.40
2017-12-10T23:41:23.808Z,78.40
2017-12-10T23:43:52.004Z,78.50
2017-12-10T23:46:19.416Z,78.50
2017-12-10T23:48:46.899Z,78.90
2017-12-10T23:51:14.325Z,78.70
2017-12-10T23:53:41.748Z,79.20
2017-12-10T23:56:09.168Z,79.20
2017-12-10T23:58:37.348Z,80.20
